Terminal Aerodrome Forecast
Issued by NWS

Home | Current Version | Previous Version | Text Only | Print | Product List | Glossary On
Versions: 1 2 3 4 5 6 7 8 9 10 11 12 13 14 15 16 17
000
FTUS41 KAKQ 211500 AAB
TAFPHF
TAF AMD
KPHF 211540Z 2116/2212 33008KT P6SM SCT015 SCT100
     FM211700 31008KT P6SM SCT080
     FM212000 25008KT P6SM SCT080=

USA.gov is the U.S. government's official web portal to all federal, state and local government web resources and services.